createdAt,value
2022-09-12T00:01:13.068Z,10.50
2022-09-12T00:03:41.245Z,10.40
2022-09-12T00:06:17.193Z,10.40
2022-09-12T00:08:50.181Z,10.40
2022-09-12T00:11:17.942Z,10.40
2022-09-12T00:13:47.180Z,10.40
2022-09-12T00:16:24.338Z,10.40
2022-09-12T00:18:53.697Z,10.40
2022-09-12T00:21:22.879Z,10.40
2022-09-12T00:23:50.857Z,10.40
2022-09-12T00:26:19.816Z,10.40
2022-09-12T00:28:47.712Z,10.40
2022-09-12T00:31:18.567Z,10.40
2022-09-12T00:33:46.713Z,10.40
2022-09-12T00:36:19.637Z,10.30
2022-09-12T00:38:47.970Z,10.30
2022-09-12T00:41:37.117Z,10.30
2022-09-12T00:44:13.506Z,10.20
2022-09-12T00:46:46.447Z,10.20
2022-09-12T00:49:38.504Z,10.10
2022-09-12T00:52:14.366Z,10.10
2022-09-12T00:55:06.845Z,10.10
2022-09-12T00:58:18.742Z,10.00
2022-09-12T01:00:47.609Z,10.00
2022-09-12T01:03:18.580Z,10.00
2022-09-12T01:05:59.551Z,9.90
2022-09-12T01:08:27.573Z,9.90
2022-09-12T01:10:56.991Z,9.80
2022-09-12T01:13:25.894Z,9.80
2022-09-12T01:15:54.315Z,9.80
2022-09-12T01:18:24.101Z,9.80
2022-09-12T01:21:02.601Z,9.80
2022-09-12T01:23:38.878Z,9.80
2022-09-12T01:26:26.938Z,9.90
2022-09-12T01:29:09.079Z,9.80
2022-09-12T01:31:48.326Z,9.80
2022-09-12T01:34:51.806Z,9.90
2022-09-12T01:37:34.438Z,9.90
2022-09-12T01:40:14.724Z,9.90
2022-09-12T01:43:12.234Z,10.00
2022-09-12T01:45:58.624Z,10.00
2022-09-12T01:48:33.360Z,10.00
2022-09-12T01:51:22.083Z,10.00
2022-09-12T01:53:56.971Z,10.00
2022-09-12T01:56:35.691Z,10.00
2022-09-12T01:59:13.423Z,10.00
2022-09-12T02:01:56.485Z,10.00
2022-09-12T02:04:36.998Z,10.00
2022-09-12T02:07:18.601Z,10.10
2022-09-12T02:10:08.712Z,10.10
2022-09-12T02:12:50.470Z,10.10
2022-09-12T02:15:23.995Z,10.10
2022-09-12T02:17:54.328Z,10.10
2022-09-12T02:20:46.860Z,10.10
2022-09-12T02:23:23.657Z,10.10
2022-09-12T02:25:55.174Z,10.10
2022-09-12T02:28:34.379Z,10.10
2022-09-12T02:31:27.553Z,10.10
2022-09-12T02:34:33.189Z,10.10
2022-09-12T02:37:18.762Z,10.10
2022-09-12T02:39:47.252Z,10.10
2022-09-12T02:42:14.522Z,10.10
2022-09-12T02:44:42.575Z,10.00
2022-09-12T02:47:50.617Z,10.10
2022-09-12T02:50:18.660Z,10.10
2022-09-12T02:52:46.453Z,10.10
2022-09-12T02:55:14.784Z,10.10
2022-09-12T02:57:41.926Z,10.10
2022-09-12T03:00:10.011Z,10.20
2022-09-12T03:02:53.663Z,10.10
2022-09-12T03:05:41.243Z,10.10
2022-09-12T03:08:19.792Z,10.20
2022-09-12T03:11:06.547Z,10.10
2022-09-12T03:13:45.298Z,10.20
2022-09-12T03:16:34.751Z,10.10
2022-09-12T03:19:33.956Z,10.10
2022-09-12T03:22:34.578Z,10.20
2022-09-12T03:25:23.206Z,10.10
2022-09-12T03:27:59.670Z,10.10
2022-09-12T03:30:28.906Z,10.10
2022-09-12T03:32:56.104Z,10.10
2022-09-12T03:35:25.085Z,10.10
2022-09-12T03:37:53.340Z,10.10
2022-09-12T03:40:20.650Z,10.10
2022-09-12T03:42:47.827Z,10.10
2022-09-12T03:45:16.684Z,10.20
2022-09-12T03:47:43.865Z,10.20
2022-09-12T03:50:11.366Z,10.20
2022-09-12T03:52:39.415Z,10.10
2022-09-12T03:55:06.834Z,10.20
2022-09-12T03:57:34.208Z,10.20
2022-09-12T04:00:02.210Z,10.20
2022-09-12T04:02:29.805Z,10.20
2022-09-12T04:04:56.770Z,10.20
2022-09-12T04:07:24.008Z,10.20
2022-09-12T04:09:51.102Z,10.20
2022-09-12T04:12:18.202Z,10.20
2022-09-12T04:14:45.388Z,10.20
2022-09-12T04:17:12.789Z,10.20
2022-09-12T04:19:40.086Z,10.20
2022-09-12T04:22:07.109Z,10.20
2022-09-12T04:24:34.361Z,10.20
2022-09-12T04:27:04.834Z,10.20
2022-09-12T04:29:36.220Z,10.20
2022-09-12T04:32:04.261Z,10.20
2022-09-12T04:34:32.588Z,10.20
2022-09-12T04:37:02.631Z,10.30
2022-09-12T04:39:30.190Z,10.20
2022-09-12T04:41:59.422Z,10.30
2022-09-12T04:44:28.911Z,10.20
2022-09-12T04:46:57.371Z,10.30
2022-09-12T04:49:26.529Z,10.30
2022-09-12T04:51:55.195Z,10.30
2022-09-12T04:54:22.253Z,10.30
2022-09-12T04:56:50.981Z,10.30
2022-09-12T04:59:25.195Z,10.30
2022-09-12T05:01:52.688Z,10.30
2022-09-12T05:04:22.845Z,10.30
2022-09-12T05:06:53.813Z,10.30
2022-09-12T05:09:20.823Z,10.30
2022-09-12T05:12:03.616Z,10.40
2022-09-12T05:14:33.983Z,10.40
2022-09-12T05:17:02.469Z,10.40
2022-09-12T05:19:31.669Z,10.40
2022-09-12T05:21:59.168Z,10.40
2022-09-12T05:24:26.131Z,10.40
2022-09-12T05:26:53.238Z,10.40
2022-09-12T05:29:20.166Z,10.50
2022-09-12T05:31:50.567Z,10.50
2022-09-12T05:34:18.012Z,10.50
2022-09-12T05:36:46.202Z,10.50
2022-09-12T05:39:13.381Z,10.60
2022-09-12T05:41:40.554Z,10.60
2022-09-12T05:44:12.512Z,10.60
2022-09-12T05:46:41.623Z,10.60
2022-09-12T05:49:11.491Z,10.70
2022-09-12T05:51:41.697Z,10.70
2022-09-12T05:54:10.948Z,10.70
2022-09-12T05:56:40.610Z,10.70
2022-09-12T05:59:20.338Z,10.70
2022-09-12T06:01:47.849Z,10.70
2022-09-12T06:04:15.409Z,10.70
2022-09-12T06:06:45.361Z,10.80
2022-09-12T06:09:14.876Z,10.80
2022-09-12T06:11:45.304Z,10.80
2022-09-12T06:14:14.124Z,10.80
2022-09-12T06:16:41.490Z,10.80
2022-09-12T06:19:15.255Z,10.80
2022-09-12T06:21:42.332Z,10.90
2022-09-12T06:24:09.784Z,10.90
2022-09-12T06:26:36.985Z,10.90
2022-09-12T06:29:05.119Z,11.00
2022-09-12T06:31:37.993Z,11.00
2022-09-12T06:34:07.656Z,11.00
2022-09-12T06:36:40.137Z,11.00
2022-09-12T06:39:15.561Z,11.10
2022-09-12T06:41:44.165Z,11.10
2022-09-12T06:44:14.378Z,11.20
2022-09-12T06:46:41.510Z,11.20
2022-09-12T06:49:08.538Z,11.20
2022-09-12T06:51:38.134Z,11.30
2022-09-12T06:54:05.587Z,11.30
2022-09-12T06:56:32.693Z,11.30
2022-09-12T06:59:00.055Z,11.30
2022-09-12T07:01:30.322Z,11.30
2022-09-12T07:04:00.229Z,11.30
2022-09-12T07:06:32.224Z,11.30
2022-09-12T07:09:00.574Z,11.30
2022-09-12T07:11:36.724Z,11.20
2022-09-12T07:14:05.319Z,11.20
2022-09-12T07:16:32.813Z,11.20
2022-09-12T07:19:02.834Z,11.20
2022-09-12T07:21:30.523Z,11.20
2022-09-12T07:23:58.215Z,11.20
2022-09-12T07:26:29.167Z,11.30
2022-09-12T07:29:12.738Z,11.30
2022-09-12T07:31:45.373Z,11.40
2022-09-12T07:34:13.017Z,11.50
2022-09-12T07:36:40.045Z,11.50
2022-09-12T07:39:07.179Z,11.50
2022-09-12T07:41:34.551Z,11.60
2022-09-12T07:44:03.867Z,11.60
2022-09-12T07:46:31.748Z,11.70
2022-09-12T07:49:01.855Z,11.70
2022-09-12T07:51:30.504Z,11.70
2022-09-12T07:53:58.278Z,11.70
2022-09-12T07:56:31.176Z,11.70
2022-09-12T07:58:59.226Z,11.70
2022-09-12T08:01:27.092Z,11.70
2022-09-12T08:03:57.174Z,11.70
2022-09-12T08:06:25.626Z,11.70
2022-09-12T08:08:54.732Z,11.80
2022-09-12T08:11:23.131Z,11.80
2022-09-12T08:13:55.300Z,11.80
2022-09-12T08:16:26.182Z,11.80
2022-09-12T08:18:54.495Z,11.90
2022-09-12T08:21:28.069Z,11.90
2022-09-12T08:24:03.802Z,12.00
2022-09-12T08:26:32.854Z,12.10
2022-09-12T08:29:00.426Z,12.10
2022-09-12T08:31:28.139Z,12.20
2022-09-12T08:33:59.043Z,12.20
2022-09-12T08:36:28.312Z,12.30
2022-09-12T08:38:59.885Z,12.40
2022-09-12T08:41:38.006Z,12.50
2022-09-12T08:44:38.887Z,12.60
2022-09-12T08:47:21.244Z,12.60
2022-09-12T08:49:51.660Z,12.70
2022-09-12T08:52:22.455Z,12.80
2022-09-12T08:54:50.803Z,12.90
2022-09-12T08:57:19.237Z,12.90
2022-09-12T08:59:46.937Z,13.00
2022-09-12T09:02:49.679Z,13.00
2022-09-12T09:05:24.758Z,13.10
2022-09-12T09:08:02.321Z,13.10
2022-09-12T09:10:30.125Z,13.10
2022-09-12T09:13:47.089Z,13.10
2022-09-12T09:16:30.764Z,13.20
2022-09-12T09:19:11.381Z,13.20
2022-09-12T09:21:59.047Z,13.20
2022-09-12T09:24:36.826Z,13.30
2022-09-12T09:27:36.796Z,13.30
2022-09-12T09:29:58.365Z,13.30
2022-09-12T09:32:36.940Z,13.40
2022-09-12T09:35:23.728Z,13.40
2022-09-12T09:38:07.536Z,13.50
2022-09-12T09:41:02.245Z,13.60
2022-09-12T09:43:29.237Z,13.60
2022-09-12T09:46:00.611Z,13.70
2022-09-12T09:48:32.946Z,13.80
2022-09-12T09:51:02.861Z,13.80
2022-09-12T09:53:50.306Z,13.90
2022-09-12T09:56:36.965Z,13.90
2022-09-12T09:59:26.956Z,13.90
2022-09-12T10:01:58.362Z,14.00
2022-09-12T10:04:28.261Z,14.00
2022-09-12T10:07:01.025Z,14.00
2022-09-12T10:09:33.252Z,14.10
2022-09-12T10:12:02.272Z,14.10
2022-09-12T10:14:39.839Z,14.10
2022-09-12T10:17:39.441Z,14.20
2022-09-12T10:20:29.623Z,14.20
2022-09-12T10:22:58.463Z,14.20
2022-09-12T10:25:27.213Z,14.30
2022-09-12T10:28:00.204Z,14.30
2022-09-12T10:30:31.209Z,14.30
2022-09-12T10:33:07.682Z,14.30
2022-09-12T10:35:45.676Z,14.30
2022-09-12T10:38:32.938Z,14.30
2022-09-12T10:41:06.828Z,14.30
2022-09-12T10:43:34.175Z,14.30
2022-09-12T10:46:23.110Z,14.40
2022-09-12T10:49:12.366Z,14.40
2022-09-12T10:51:41.819Z,14.40
2022-09-12T10:54:13.318Z,14.30
2022-09-12T10:56:48.397Z,14.40
2022-09-12T10:59:31.565Z,14.50
2022-09-12T11:02:16.154Z,14.50
2022-09-12T11:05:06.662Z,14.50
2022-09-12T11:07:53.118Z,14.60
2022-09-12T11:10:44.199Z,14.60
2022-09-12T11:13:30.081Z,14.60
2022-09-12T11:16:15.369Z,14.60
2022-09-12T11:19:04.989Z,14.60
2022-09-12T11:21:47.172Z,14.60
2022-09-12T11:24:55.732Z,14.70
2022-09-12T11:27:42.110Z,14.80
2022-09-12T11:30:15.905Z,14.80
2022-09-12T11:32:53.785Z,14.80
2022-09-12T11:35:28.934Z,14.90
2022-09-12T11:38:11.274Z,15.00
2022-09-12T11:40:50.488Z,15.10
2022-09-12T11:43:20.570Z,15.10
2022-09-12T11:45:49.191Z,15.20
2022-09-12T11:48:54.894Z,15.20
2022-09-12T11:51:41.270Z,15.30
2022-09-12T11:54:28.533Z,15.40
2022-09-12T11:57:47.960Z,15.40
2022-09-12T12:00:20.755Z,15.40
2022-09-12T12:03:07.500Z,15.40
2022-09-12T12:05:57.622Z,15.30
2022-09-12T12:08:26.467Z,15.40
2022-09-12T12:10:57.619Z,15.40
2022-09-12T12:13:43.904Z,15.50
2022-09-12T12:16:25.848Z,15.50
2022-09-12T12:18:58.834Z,15.60
2022-09-12T12:21:32.183Z,15.60
2022-09-12T12:24:07.408Z,15.60
2022-09-12T12:26:51.399Z,15.60
2022-09-12T12:29:18.873Z,15.60
2022-09-12T12:32:06.535Z,15.50
2022-09-12T12:34:35.813Z,15.50
2022-09-12T12:37:22.243Z,15.50
2022-09-12T12:39:52.781Z,15.60
2022-09-12T12:42:35.053Z,15.60
2022-09-12T12:45:10.560Z,15.70
2022-09-12T12:47:46.546Z,15.70
2022-09-12T12:50:19.504Z,15.80
2022-09-12T12:52:55.675Z,15.70
2022-09-12T12:55:31.391Z,15.70
2022-09-12T12:58:05.675Z,15.70
2022-09-12T13:00:40.051Z,15.60
2022-09-12T13:03:07.193Z,15.60
2022-09-12T13:05:47.373Z,15.60
2022-09-12T13:08:17.419Z,15.60
2022-09-12T13:10:58.034Z,15.60
2022-09-12T13:13:40.716Z,15.60
2022-09-12T13:16:11.078Z,15.60
2022-09-12T13:18:48.398Z,15.60
2022-09-12T13:21:21.692Z,15.70
2022-09-12T13:24:13.935Z,15.80
2022-09-12T13:26:47.158Z,15.90
2022-09-12T13:29:18.639Z,16.00
2022-09-12T13:31:53.678Z,16.00
2022-09-12T13:34:48.279Z,16.00
2022-09-12T13:37:24.913Z,16.00
2022-09-12T13:40:21.112Z,16.00
2022-09-12T13:42:49.784Z,16.10
2022-09-12T13:45:24.884Z,16.10
2022-09-12T13:47:58.732Z,16.10
2022-09-12T13:50:37.036Z,16.20
2022-09-12T13:53:19.731Z,16.30
2022-09-12T13:55:52.042Z,16.30
2022-09-12T13:58:22.142Z,16.40
2022-09-12T14:01:09.797Z,16.40
2022-09-12T14:04:10.662Z,16.50
2022-09-12T14:06:49.724Z,16.60
2022-09-12T14:09:32.915Z,16.70
2022-09-12T14:12:01.547Z,16.80
2022-09-12T14:14:36.238Z,16.90
2022-09-12T14:17:24.817Z,17.00
2022-09-12T14:19:52.944Z,17.10
2022-09-12T14:22:20.703Z,17.30
2022-09-12T14:24:50.977Z,17.60
2022-09-12T14:27:20.425Z,18.00
2022-09-12T14:29:48.125Z,18.40
2022-09-12T14:32:24.182Z,18.80
2022-09-12T14:35:13.098Z,19.10
2022-09-12T14:37:40.514Z,19.40
2022-09-12T14:40:40.837Z,19.40
2022-09-12T14:43:17.878Z,19.50
2022-09-12T14:45:51.970Z,19.30
2022-09-12T14:48:20.378Z,19.10
2022-09-12T14:50:53.486Z,18.80
2022-09-12T14:53:25.247Z,18.60
2022-09-12T14:55:58.082Z,18.30
2022-09-12T14:58:28.350Z,18.10
2022-09-12T15:00:58.700Z,18.00
2022-09-12T15:03:33.281Z,17.90
2022-09-12T15:06:03.135Z,17.80
2022-09-12T15:08:31.705Z,17.70
2022-09-12T15:10:59.954Z,17.50
2022-09-12T15:13:28.665Z,17.40
2022-09-12T15:15:57.649Z,17.30
2022-09-12T15:18:26.954Z,17.10
2022-09-12T15:20:58.720Z,17.00
2022-09-12T15:23:35.455Z,16.90
2022-09-12T15:26:03.299Z,16.70
2022-09-12T15:28:31.566Z,16.60
2022-09-12T15:31:05.004Z,16.50
2022-09-12T15:33:32.531Z,16.40
2022-09-12T15:35:59.704Z,16.30
2022-09-12T15:38:27.012Z,16.30
2022-09-12T15:40:54.680Z,16.20
2022-09-12T15:43:26.329Z,16.10
2022-09-12T15:45:54.395Z,16.10
2022-09-12T15:48:21.925Z,16.00
2022-09-12T15:50:48.932Z,16.00
2022-09-12T15:53:17.198Z,15.90
2022-09-12T15:55:44.690Z,15.90
2022-09-12T15:58:11.978Z,15.80
2022-09-12T16:00:38.891Z,15.80
2022-09-12T16:03:06.533Z,15.80
2022-09-12T16:05:33.497Z,15.70
2022-09-12T16:08:00.388Z,15.70
2022-09-12T16:10:30.422Z,15.60
2022-09-12T16:12:58.212Z,15.60
2022-09-12T16:15:26.344Z,15.50
2022-09-12T16:17:53.674Z,15.50
2022-09-12T16:20:22.795Z,15.50
2022-09-12T16:22:51.664Z,15.50
2022-09-12T16:25:18.842Z,15.40
2022-09-12T16:27:45.856Z,15.40
2022-09-12T16:30:13.893Z,15.40
2022-09-12T16:32:42.079Z,15.30
2022-09-12T16:35:09.700Z,15.30
2022-09-12T16:37:36.684Z,15.30
2022-09-12T16:40:05.492Z,15.30
2022-09-12T16:42:32.647Z,15.20
2022-09-12T16:44:59.603Z,15.20
2022-09-12T16:47:27.054Z,15.20
2022-09-12T16:49:54.634Z,15.20
2022-09-12T16:52:21.752Z,15.10
2022-09-12T16:54:48.899Z,15.10
2022-09-12T16:57:16.304Z,15.10
2022-09-12T16:59:43.491Z,15.10
2022-09-12T17:02:13.528Z,15.00
2022-09-12T17:04:41.657Z,15.00
2022-09-12T17:07:08.844Z,15.00
2022-09-12T17:09:36.039Z,15.00
2022-09-12T17:12:03.662Z,15.00
2022-09-12T17:14:30.603Z,15.00
2022-09-12T17:16:57.727Z,15.00
2022-09-12T17:19:28.180Z,15.00
2022-09-12T17:21:55.857Z,14.90
2022-09-12T17:24:23.475Z,14.90
2022-09-12T17:26:50.992Z,14.90
2022-09-12T17:29:18.304Z,14.90
2022-09-12T17:31:46.618Z,14.80
2022-09-12T17:34:17.839Z,14.80
2022-09-12T17:36:46.444Z,14.80
2022-09-12T17:39:14.402Z,14.80
2022-09-12T17:41:42.855Z,14.80
2022-09-12T17:44:13.030Z,14.80
2022-09-12T17:46:40.326Z,14.70
2022-09-12T17:49:19.198Z,14.70
2022-09-12T17:51:47.249Z,14.70
2022-09-12T17:54:16.646Z,14.70
2022-09-12T17:56:45.626Z,14.70
2022-09-12T17:59:30.411Z,14.70
2022-09-12T18:02:16.338Z,14.60
2022-09-12T18:04:48.352Z,14.60
2022-09-12T18:07:19.933Z,14.60
2022-09-12T18:09:50.661Z,14.50
2022-09-12T18:12:19.137Z,14.50
2022-09-12T18:14:46.410Z,14.50
2022-09-12T18:17:13.377Z,14.50
2022-09-12T18:19:40.802Z,14.40
2022-09-12T18:22:07.899Z,14.40
2022-09-12T18:24:35.104Z,14.40
2022-09-12T18:27:03.989Z,14.30
2022-09-12T18:29:31.354Z,14.30
2022-09-12T18:31:58.168Z,14.30
2022-09-12T18:34:25.206Z,14.30
2022-09-12T18:36:55.114Z,14.30
2022-09-12T18:39:26.917Z,14.20
2022-09-12T18:41:54.737Z,14.20
2022-09-12T18:44:21.975Z,14.20
2022-09-12T18:46:49.044Z,14.20
2022-09-12T18:49:15.966Z,14.20
2022-09-12T18:51:43.068Z,14.20
2022-09-12T18:54:14.173Z,14.20
2022-09-12T18:56:43.668Z,14.20
2022-09-12T18:59:13.171Z,14.20
2022-09-12T19:01:41.123Z,14.20
2022-09-12T19:04:10.057Z,14.10
2022-09-12T19:06:43.231Z,14.20
2022-09-12T19:09:11.713Z,14.10
2022-09-12T19:11:40.907Z,14.10
2022-09-12T19:14:07.918Z,14.10
2022-09-12T19:16:37.780Z,14.10
2022-09-12T19:19:04.838Z,14.10
2022-09-12T19:21:34.727Z,14.10
2022-09-12T19:24:04.653Z,14.10
2022-09-12T19:26:32.579Z,14.10
2022-09-12T19:28:59.576Z,14.10
2022-09-12T19:31:26.899Z,14.10
2022-09-12T19:33:54.091Z,14.00
2022-09-12T19:36:43.815Z,14.10
2022-09-12T19:39:10.094Z,14.10
2022-09-12T19:41:37.287Z,14.10
2022-09-12T19:44:05.180Z,14.00
2022-09-12T19:46:32.134Z,14.00
2022-09-12T19:48:59.161Z,14.00
2022-09-12T19:51:26.465Z,14.00
2022-09-12T19:53:53.985Z,13.90
2022-09-12T19:56:21.321Z,13.90
2022-09-12T19:58:53.728Z,13.80
2022-09-12T20:01:25.703Z,13.80
2022-09-12T20:03:53.860Z,13.80
2022-09-12T20:06:21.165Z,13.80
2022-09-12T20:08:48.252Z,13.70
2022-09-12T20:11:18.143Z,13.70
2022-09-12T20:13:46.112Z,13.70
2022-09-12T20:16:33.285Z,13.70
2022-09-12T20:19:03.878Z,13.60
2022-09-12T20:21:33.073Z,13.60
2022-09-12T20:24:20.175Z,13.60
2022-09-12T20:26:47.226Z,13.60
2022-09-12T20:29:14.356Z,13.60
2022-09-12T20:31:42.633Z,13.60
2022-09-12T20:34:15.954Z,13.60
2022-09-12T20:36:42.797Z,13.60
2022-09-12T20:39:21.938Z,13.50
2022-09-12T20:41:49.369Z,13.50
2022-09-12T20:44:16.257Z,13.50
2022-09-12T20:46:43.460Z,13.40
2022-09-12T20:49:10.392Z,13.40
2022-09-12T20:51:37.717Z,13.40
2022-09-12T20:54:06.837Z,13.40
2022-09-12T20:56:35.516Z,13.30
2022-09-12T20:59:03.190Z,13.30
2022-09-12T21:01:31.603Z,13.30
2022-09-12T21:04:00.913Z,13.30
2022-09-12T21:06:28.327Z,13.30
2022-09-12T21:08:59.823Z,13.30
2022-09-12T21:11:27.878Z,13.20
2022-09-12T21:13:56.177Z,13.20
2022-09-12T21:16:23.785Z,13.20
2022-09-12T21:18:57.190Z,13.20
2022-09-12T21:21:24.941Z,13.10
2022-09-12T21:23:51.997Z,13.10
2022-09-12T21:26:19.964Z,13.00
2022-09-12T21:28:48.452Z,12.90
2022-09-12T21:31:15.800Z,12.80
2022-09-12T21:33:43.396Z,12.80
2022-09-12T21:36:10.579Z,12.70
2022-09-12T21:38:37.744Z,12.60
2022-09-12T21:41:08.780Z,12.60
2022-09-12T21:43:36.577Z,12.50
2022-09-12T21:46:04.174Z,12.40
2022-09-12T21:48:31.558Z,12.40
2022-09-12T21:50:59.071Z,12.30
2022-09-12T21:53:26.190Z,12.30
2022-09-12T21:55:53.271Z,12.30
2022-09-12T21:58:20.360Z,12.20
2022-09-12T22:00:48.192Z,12.20
2022-09-12T22:03:16.774Z,12.10
2022-09-12T22:05:43.799Z,12.10
2022-09-12T22:08:11.638Z,12.10
2022-09-12T22:10:40.275Z,12.00
2022-09-12T22:13:07.420Z,12.00
2022-09-12T22:15:41.816Z,11.90
2022-09-12T22:18:08.694Z,11.90
2022-09-12T22:20:35.916Z,11.80
2022-09-12T22:23:24.868Z,11.80
2022-09-12T22:25:55.851Z,11.80
2022-09-12T22:28:23.235Z,11.70
2022-09-12T22:30:50.748Z,11.60
2022-09-12T22:33:17.689Z,11.60
2022-09-12T22:35:44.533Z,11.50
2022-09-12T22:38:11.489Z,11.50
2022-09-12T22:40:39.602Z,11.40
2022-09-12T22:43:06.682Z,11.30
2022-09-12T22:45:33.752Z,11.30
2022-09-12T22:48:01.278Z,11.20
2022-09-12T22:50:28.665Z,11.10
2022-09-12T22:52:55.721Z,11.10
2022-09-12T22:55:22.685Z,11.00
2022-09-12T22:57:49.957Z,11.00
2022-09-12T23:00:18.141Z,10.90
2022-09-12T23:02:45.359Z,10.80
2022-09-12T23:05:12.407Z,10.80
2022-09-12T23:07:40.078Z,10.70
2022-09-12T23:10:07.828Z,10.70
2022-09-12T23:12:34.867Z,10.60
2022-09-12T23:15:01.776Z,10.50
2022-09-12T23:17:29.125Z,10.50
2022-09-12T23:19:56.034Z,10.40
2022-09-12T23:22:22.854Z,10.40
2022-09-12T23:24:49.710Z,10.40
2022-09-12T23:27:16.590Z,10.30
2022-09-12T23:29:43.835Z,10.30
2022-09-12T23:32:10.904Z,10.20
2022-09-12T23:34:38.061Z,10.10
2022-09-12T23:37:05.212Z,10.10
2022-09-12T23:39:32.312Z,10.00
2022-09-12T23:41:59.173Z,9.90
2022-09-12T23:44:26.082Z,9.90
2022-09-12T23:46:53.156Z,9.90
2022-09-12T23:49:20.077Z,9.80
2022-09-12T23:51:47.213Z,9.80
2022-09-12T23:54:14.347Z,9.70
2022-09-12T23:56:41.445Z,9.70
2022-09-12T23:59:08.698Z,9.70
